sensor_id;sensor_type;location;lat;lon;timestamp;pressure;altitude;pressure_sealevel;temperature;humidity
70374;BME280;57792;49.198;7.890;2022-09-13T00:00:18;98383.84;;;11.93;72.92
70374;BME280;57792;49.198;7.890;2022-09-13T00:01:18;98390.75;;;11.97;72.63
70374;BME280;57792;49.198;7.890;2022-09-13T00:02:18;98388.06;;;11.97;73.16
70374;BME280;57792;49.198;7.890;2022-09-13T00:03:19;98378.44;;;11.95;73.11
70374;BME280;57792;49.198;7.890;2022-09-13T00:04:19;98380.56;;;11.88;73.54
70374;BME280;57792;49.198;7.890;2022-09-13T00:05:20;98374.03;;;11.94;72.80
70374;BME280;57792;49.198;7.890;2022-09-13T00:06:20;98376.88;;;11.91;73.02
70374;BME280;57792;49.198;7.890;2022-09-13T00:07:21;98368.84;;;11.91;72.96
70374;BME280;57792;49.198;7.890;2022-09-13T00:08:21;98369.09;;;11.86;73.25
70374;BME280;57792;49.198;7.890;2022-09-13T00:09:22;98368.31;;;11.84;73.23
70374;BME280;57792;49.198;7.890;2022-09-13T00:10:23;98363.81;;;11.85;73.40
70374;BME280;57792;49.198;7.890;2022-09-13T00:11:25;98362.97;;;11.84;73.11
70374;BME280;57792;49.198;7.890;2022-09-13T00:12:25;98372.53;;;11.88;72.74
70374;BME280;57792;49.198;7.890;2022-09-13T00:13:26;98367.69;;;11.79;73.55
70374;BME280;57792;49.198;7.890;2022-09-13T00:14:26;98366.66;;;11.82;72.78
70374;BME280;57792;49.198;7.890;2022-09-13T00:15:27;98370.03;;;11.85;72.31
70374;BME280;57792;49.198;7.890;2022-09-13T00:16:28;98369.56;;;11.77;73.27
70374;BME280;57792;49.198;7.890;2022-09-13T00:17:29;98363.66;;;11.70;72.92
70374;BME280;57792;49.198;7.890;2022-09-13T00:18:29;98370.50;;;11.76;72.86
70374;BME280;57792;49.198;7.890;2022-09-13T00:19:30;98371.28;;;11.78;73.15
70374;BME280;57792;49.198;7.890;2022-09-13T00:20:30;98371.69;;;11.70;73.04
70374;BME280;57792;49.198;7.890;2022-09-13T00:21:30;98368.84;;;11.73;72.79
70374;BME280;57792;49.198;7.890;2022-09-13T00:22:31;98373.25;;;11.74;72.79
70374;BME280;57792;49.198;7.890;2022-09-13T00:23:32;98361.94;;;11.69;72.74
70374;BME280;57792;49.198;7.890;2022-09-13T00:24:32;98366.97;;;11.75;72.97
70374;BME280;57792;49.198;7.890;2022-09-13T00:25:33;98360.69;;;11.76;72.70
70374;BME280;57792;49.198;7.890;2022-09-13T00:26:33;98358.16;;;11.73;72.65
70374;BME280;57792;49.198;7.890;2022-09-13T00:27:35;98370.75;;;11.71;72.91
70374;BME280;57792;49.198;7.890;2022-09-13T00:28:36;98356.38;;;11.74;72.64
70374;BME280;57792;49.198;7.890;2022-09-13T00:29:37;98362.34;;;11.79;72.32
70374;BME280;57792;49.198;7.890;2022-09-13T00:30:37;98361.63;;;11.75;72.44
70374;BME280;57792;49.198;7.890;2022-09-13T00:31:38;98354.47;;;11.76;72.72
70374;BME280;57792;49.198;7.890;2022-09-13T00:32:38;98352.03;;;11.71;72.58
70374;BME280;57792;49.198;7.890;2022-09-13T00:33:39;98352.81;;;11.73;72.61
70374;BME280;57792;49.198;7.890;2022-09-13T00:34:39;98356.69;;;11.68;73.54
70374;BME280;57792;49.198;7.890;2022-09-13T00:35:39;98351.41;;;11.66;72.87
70374;BME280;57792;49.198;7.890;2022-09-13T00:36:40;98356.69;;;11.68;72.87
70374;BME280;57792;49.198;7.890;2022-09-13T00:37:40;98360.78;;;11.58;73.57
70374;BME280;57792;49.198;7.890;2022-09-13T00:38:42;98364.47;;;11.55;73.08
70374;BME280;57792;49.198;7.890;2022-09-13T00:39:42;98367.84;;;11.59;72.89
70374;BME280;57792;49.198;7.890;2022-09-13T00:40:42;98361.66;;;11.58;73.07
70374;BME280;57792;49.198;7.890;2022-09-13T00:41:43;98365.09;;;11.60;72.76
70374;BME280;57792;49.198;7.890;2022-09-13T00:42:43;98357.09;;;11.60;72.98
70374;BME280;57792;49.198;7.890;2022-09-13T00:43:53;98361.66;;;11.58;73.23
70374;BME280;57792;49.198;7.890;2022-09-13T00:45:00;98352.94;;;11.55;73.22
70374;BME280;57792;49.198;7.890;2022-09-13T00:46:05;98357.41;;;11.54;73.20
70374;BME280;57792;49.198;7.890;2022-09-13T00:47:05;98355.59;;;11.55;72.95
70374;BME280;57792;49.198;7.890;2022-09-13T00:48:06;98359.44;;;11.49;73.18
70374;BME280;57792;49.198;7.890;2022-09-13T00:49:15;98350.56;;;11.49;72.74
70374;BME280;57792;49.198;7.890;2022-09-13T00:51:24;98354.81;;;11.53;72.50
70374;BME280;57792;49.198;7.890;2022-09-13T00:52:28;98361.16;;;11.50;73.00
70374;BME280;57792;49.198;7.890;2022-09-13T00:53:33;98358.31;;;11.36;74.06
70374;BME280;57792;49.198;7.890;2022-09-13T00:54:41;98366.97;;;11.24;74.20
70374;BME280;57792;49.198;7.890;2022-09-13T00:55:52;98366.88;;;11.25;74.25
70374;BME280;57792;49.198;7.890;2022-09-13T00:56:57;98372.78;;;11.32;73.81
70374;BME280;57792;49.198;7.890;2022-09-13T00:58:03;98366.19;;;11.22;74.17
70374;BME280;57792;49.198;7.890;2022-09-13T00:59:25;98376.72;;;10.68;76.84
70374;BME280;57792;49.198;7.890;2022-09-13T01:00:27;98387.31;;;10.70;76.34
70374;BME280;57792;49.198;7.890;2022-09-13T01:01:32;98380.56;;;10.82;76.13
70374;BME280;57792;49.198;7.890;2022-09-13T01:02:34;98372.50;;;11.00;74.77
70374;BME280;57792;49.198;7.890;2022-09-13T01:03:35;98372.06;;;11.09;74.43
70374;BME280;57792;49.198;7.890;2022-09-13T01:04:37;98370.13;;;11.13;74.24
70374;BME280;57792;49.198;7.890;2022-09-13T01:05:42;98368.91;;;11.20;73.81
70374;BME280;57792;49.198;7.890;2022-09-13T01:06:45;98374.97;;;11.24;73.77
70374;BME280;57792;49.198;7.890;2022-09-13T01:07:46;98371.44;;;11.23;73.70
70374;BME280;57792;49.198;7.890;2022-09-13T01:08:49;98375.75;;;11.26;73.49
70374;BME280;57792;49.198;7.890;2022-09-13T01:09:52;98388.31;;;11.24;73.75
70374;BME280;57792;49.198;7.890;2022-09-13T01:10:53;98380.28;;;11.05;74.68
70374;BME280;57792;49.198;7.890;2022-09-13T01:12:02;98390.75;;;11.09;74.59
70374;BME280;57792;49.198;7.890;2022-09-13T01:13:17;98395.88;;;11.14;74.29
70374;BME280;57792;49.198;7.890;2022-09-13T01:14:19;98393.28;;;11.12;73.96
70374;BME280;57792;49.198;7.890;2022-09-13T01:15:20;98396.09;;;11.09;74.27
70374;BME280;57792;49.198;7.890;2022-09-13T01:16:20;98392.84;;;11.03;74.60
70374;BME280;57792;49.198;7.890;2022-09-13T01:17:21;98390.75;;;11.09;74.47
70374;BME280;57792;49.198;7.890;2022-09-13T01:18:21;98389.66;;;11.13;74.07
70374;BME280;57792;49.198;7.890;2022-09-13T01:19:21;98379.66;;;11.19;74.16
70374;BME280;57792;49.198;7.890;2022-09-13T01:20:33;98377.88;;;11.19;74.58
70374;BME280;57792;49.198;7.890;2022-09-13T01:28:52;98377.47;;;11.08;75.00
70374;BME280;57792;49.198;7.890;2022-09-13T01:30:20;98368.63;;;11.07;75.11
70374;BME280;57792;49.198;7.890;2022-09-13T01:31:42;98374.81;;;11.08;74.69
70374;BME280;57792;49.198;7.890;2022-09-13T01:44:01;98380.06;;;10.92;74.76
70374;BME280;57792;49.198;7.890;2022-09-13T01:45:23;98382.06;;;10.87;75.36
70374;BME280;57792;49.198;7.890;2022-09-13T01:46:41;98389.84;;;10.92;75.10
70374;BME280;57792;49.198;7.890;2022-09-13T01:48:07;98392.31;;;10.96;75.26
70374;BME280;57792;49.198;7.890;2022-09-13T01:49:21;98400.81;;;10.86;74.63
70374;BME280;57792;49.198;7.890;2022-09-13T01:50:40;98404.97;;;10.72;75.99
70374;BME280;57792;49.198;7.890;2022-09-13T01:51:48;98397.56;;;10.60;76.22
70374;BME280;57792;49.198;7.890;2022-09-13T01:54:09;98401.66;;;10.49;76.92
70374;BME280;57792;49.198;7.890;2022-09-13T01:54:47;98385.41;;;10.55;76.05
70374;BME280;57792;49.198;7.890;2022-09-13T01:57:30;98385.38;;;10.73;75.75
70374;BME280;57792;49.198;7.890;2022-09-13T01:58:43;98384.94;;;10.83;75.04
70374;BME280;57792;49.198;7.890;2022-09-13T02:01:16;98380.47;;;10.83;74.52
70374;BME280;57792;49.198;7.890;2022-09-13T02:02:27;98376.38;;;10.76;74.96
70374;BME280;57792;49.198;7.890;2022-09-13T02:03:44;98384.66;;;10.70;75.32
70374;BME280;57792;49.198;7.890;2022-09-13T02:04:52;98379.31;;;10.70;75.06
70374;BME280;57792;49.198;7.890;2022-09-13T02:05:58;98375.66;;;10.54;76.15
70374;BME280;57792;49.198;7.890;2022-09-13T02:07:06;98375.31;;;10.61;75.51
70374;BME280;57792;49.198;7.890;2022-09-13T02:08:12;98373.78;;;10.74;75.14
70374;BME280;57792;49.198;7.890;2022-09-13T02:09:17;98374.78;;;10.72;75.03
70374;BME280;57792;49.198;7.890;2022-09-13T02:10:24;98371.25;;;10.71;74.90
70374;BME280;57792;49.198;7.890;2022-09-13T02:11:25;98369.09;;;10.79;74.65
70374;BME280;57792;49.198;7.890;2022-09-13T02:12:27;98379.84;;;10.78;74.41
70374;BME280;57792;49.198;7.890;2022-09-13T02:13:34;98383.66;;;10.54;75.87
70374;BME280;57792;49.198;7.890;2022-09-13T02:14:38;98383.56;;;10.36;76.71
70374;BME280;57792;49.198;7.890;2022-09-13T02:15:43;98392.75;;;10.50;76.02
70374;BME280;57792;49.198;7.890;2022-09-13T02:16:55;98380.94;;;10.55;75.79
70374;BME280;57792;49.198;7.890;2022-09-13T02:18:22;98395.13;;;10.56;75.57
70374;BME280;57792;49.198;7.890;2022-09-13T02:19:33;98388.66;;;10.61;75.48
70374;BME280;57792;49.198;7.890;2022-09-13T02:20:37;98400.91;;;10.65;75.49
70374;BME280;57792;49.198;7.890;2022-09-13T02:21:42;98393.19;;;10.59;75.24
70374;BME280;57792;49.198;7.890;2022-09-13T02:22:48;98389.69;;;10.38;76.27
70374;BME280;57792;49.198;7.890;2022-09-13T02:23:54;98400.28;;;10.21;77.49
70374;BME280;57792;49.198;7.890;2022-09-13T02:25:02;98390.56;;;10.39;76.23
70374;BME280;57792;49.198;7.890;2022-09-13T02:26:05;98390.81;;;10.53;75.26
70374;BME280;57792;49.198;7.890;2022-09-13T02:27:10;98394.13;;;10.58;75.13
70374;BME280;57792;49.198;7.890;2022-09-13T02:28:16;98378.84;;;10.62;74.88
70374;BME280;57792;49.198;7.890;2022-09-13T02:29:22;98383.97;;;10.66;74.34
70374;BME280;57792;49.198;7.890;2022-09-13T02:30:24;98375.78;;;10.69;74.42
70374;BME280;57792;49.198;7.890;2022-09-13T02:31:29;98373.91;;;10.71;74.80
70374;BME280;57792;49.198;7.890;2022-09-13T02:32:42;98367.25;;;10.63;75.31
70374;BME280;57792;49.198;7.890;2022-09-13T02:33:50;98367.25;;;10.63;75.01
70374;BME280;57792;49.198;7.890;2022-09-13T02:34:55;98363.00;;;10.59;74.78
70374;BME280;57792;49.198;7.890;2022-09-13T02:36:11;98364.88;;;10.57;75.04
70374;BME280;57792;49.198;7.890;2022-09-13T02:37:12;98368.09;;;10.44;75.86
70374;BME280;57792;49.198;7.890;2022-09-13T02:38:29;98372.03;;;10.36;76.43
70374;BME280;57792;49.198;7.890;2022-09-13T02:39:31;98368.97;;;10.26;77.01
70374;BME280;57792;49.198;7.890;2022-09-13T02:40:41;98372.22;;;10.33;76.63
70374;BME280;57792;49.198;7.890;2022-09-13T02:43:07;98377.97;;;10.42;76.01
70374;BME280;57792;49.198;7.890;2022-09-13T02:45:47;98377.75;;;10.47;76.00
70374;BME280;57792;49.198;7.890;2022-09-13T02:47:03;98375.56;;;10.36;76.41
70374;BME280;57792;49.198;7.890;2022-09-13T02:48:14;98386.16;;;10.38;76.53
70374;BME280;57792;49.198;7.890;2022-09-13T02:49:28;98385.75;;;10.47;75.86
70374;BME280;57792;49.198;7.890;2022-09-13T02:53:03;98357.00;;;10.35;75.96
70374;BME280;57792;49.198;7.890;2022-09-13T02:54:37;98353.19;;;10.40;76.78
70374;BME280;57792;49.198;7.890;2022-09-13T02:55:54;98360.88;;;10.47;76.56
70374;BME280;57792;49.198;7.890;2022-09-13T02:57:09;98363.22;;;10.54;76.02
70374;BME280;57792;49.198;7.890;2022-09-13T02:58:20;98363.22;;;10.54;75.59
70374;BME280;57792;49.198;7.890;2022-09-13T02:59:24;98358.75;;;10.55;75.41
70374;BME280;57792;49.198;7.890;2022-09-13T03:00:25;98370.06;;;10.60;75.30
70374;BME280;57792;49.198;7.890;2022-09-13T03:01:26;98364.28;;;10.50;75.84
70374;BME280;57792;49.198;7.890;2022-09-13T03:02:31;98361.19;;;10.59;75.05
70374;BME280;57792;49.198;7.890;2022-09-13T03:03:32;98361.63;;;10.50;75.85
70374;BME280;57792;49.198;7.890;2022-09-13T03:04:33;98355.69;;;10.43;75.99
70374;BME280;57792;49.198;7.890;2022-09-13T03:05:34;98353.84;;;10.45;75.80
70374;BME280;57792;49.198;7.890;2022-09-13T03:06:34;98352.09;;;10.44;76.07
70374;BME280;57792;49.198;7.890;2022-09-13T03:07:34;98347.50;;;10.48;nan
70374;BME280;57792;49.198;7.890;2022-09-13T03:08:36;98346.13;;;10.58;75.42
70374;BME280;57792;49.198;7.890;2022-09-13T03:09:41;98336.47;;;10.56;75.05
70374;BME280;57792;49.198;7.890;2022-09-13T03:11:07;98346.06;;;10.60;75.73
70374;BME280;57792;49.198;7.890;2022-09-13T03:13:55;98354.19;;;10.57;75.77
70374;BME280;57792;49.198;7.890;2022-09-13T03:16:16;98362.06;;;10.60;75.79
70374;BME280;57792;49.198;7.890;2022-09-13T03:20:02;98349.50;;;10.43;77.07
70374;BME280;57792;49.198;7.890;2022-09-13T03:22:17;98347.34;;;10.51;76.82
70374;BME280;57792;49.198;7.890;2022-09-13T03:23:09;98350.09;;;10.50;76.55
70374;BME280;57792;49.198;7.890;2022-09-13T03:28:29;98352.25;;;10.41;76.56
70374;BME280;57792;49.198;7.890;2022-09-13T03:29:51;98352.69;;;10.32;77.59
70374;BME280;57792;49.198;7.890;2022-09-13T03:31:09;98349.66;;;10.40;76.82
70374;BME280;57792;49.198;7.890;2022-09-13T03:33:27;98332.59;;;10.63;75.74
70374;BME280;57792;49.198;7.890;2022-09-13T03:34:50;98337.69;;;10.67;75.88
70374;BME280;57792;49.198;7.890;2022-09-13T03:36:26;98333.13;;;10.69;75.50
70374;BME280;57792;49.198;7.890;2022-09-13T03:37:26;98325.47;;;10.63;75.87
70374;BME280;57792;49.198;7.890;2022-09-13T03:38:40;98338.84;;;10.62;75.95
70374;BME280;57792;49.198;7.890;2022-09-13T03:39:51;98335.13;;;10.66;75.79
70374;BME280;57792;49.198;7.890;2022-09-13T03:41:09;98335.53;;;10.57;76.63
70374;BME280;57792;49.198;7.890;2022-09-13T03:42:22;98340.94;;;10.36;77.33
70374;BME280;57792;49.198;7.890;2022-09-13T03:43:49;98342.44;;;10.42;76.92
70374;BME280;57792;49.198;7.890;2022-09-13T03:44:52;98349.09;;;10.52;76.15
70374;BME280;57792;49.198;7.890;2022-09-13T03:45:58;98340.38;;;10.49;76.72
70374;BME280;57792;49.198;7.890;2022-09-13T03:47:01;98342.69;;;10.56;75.98
70374;BME280;57792;49.198;7.890;2022-09-13T03:48:04;98346.22;;;10.57;76.18
70374;BME280;57792;49.198;7.890;2022-09-13T03:49:08;98344.34;;;10.59;76.17
70374;BME280;57792;49.198;7.890;2022-09-13T03:50:15;98346.00;;;10.61;76.35
70374;BME280;57792;49.198;7.890;2022-09-13T03:51:17;98342.31;;;10.64;76.18
70374;BME280;57792;49.198;7.890;2022-09-13T03:52:18;98351.09;;;10.66;76.21
70374;BME280;57792;49.198;7.890;2022-09-13T03:53:22;98350.25;;;10.65;76.45
70374;BME280;57792;49.198;7.890;2022-09-13T03:54:36;98341.31;;;10.66;76.05
70374;BME280;57792;49.198;7.890;2022-09-13T03:55:39;98350.94;;;10.69;75.74
70374;BME280;57792;49.198;7.890;2022-09-13T03:56:41;98338.31;;;10.72;75.45
70374;BME280;57792;49.198;7.890;2022-09-13T03:57:41;98333.84;;;10.73;75.48
70374;BME280;57792;49.198;7.890;2022-09-13T03:58:41;98343.41;;;10.60;76.44
70374;BME280;57792;49.198;7.890;2022-09-13T03:59:51;98336.19;;;10.62;76.69
70374;BME280;57792;49.198;7.890;2022-09-13T04:00:51;98337.94;;;10.63;76.08
70374;BME280;57792;49.198;7.890;2022-09-13T04:01:53;98332.44;;;10.66;76.10
70374;BME280;57792;49.198;7.890;2022-09-13T04:02:53;98326.94;;;10.69;75.65
70374;BME280;57792;49.198;7.890;2022-09-13T04:03:54;98325.06;;;10.71;75.61
70374;BME280;57792;49.198;7.890;2022-09-13T04:04:55;98336.44;;;10.74;75.65
70374;BME280;57792;49.198;7.890;2022-09-13T04:05:55;98327.19;;;10.64;76.05
70374;BME280;57792;49.198;7.890;2022-09-13T04:06:56;98328.06;;;10.65;75.86
70374;BME280;57792;49.198;7.890;2022-09-13T04:07:56;98331.19;;;10.35;77.54
70374;BME280;57792;49.198;7.890;2022-09-13T04:08:56;98319.41;;;10.41;76.87
70374;BME280;57792;49.198;7.890;2022-09-13T04:09:58;98324.88;;;10.57;76.21
70374;BME280;57792;49.198;7.890;2022-09-13T04:10:59;98329.00;;;10.64;75.99
70374;BME280;57792;49.198;7.890;2022-09-13T04:12:00;98329.34;;;10.56;76.37
70374;BME280;57792;49.198;7.890;2022-09-13T04:13:01;98327.53;;;10.57;76.42
70374;BME280;57792;49.198;7.890;2022-09-13T04:14:01;98331.59;;;10.65;75.96
70374;BME280;57792;49.198;7.890;2022-09-13T04:15:03;98333.03;;;10.54;76.49
70374;BME280;57792;49.198;7.890;2022-09-13T04:16:05;98325.88;;;10.54;76.56
70374;BME280;57792;49.198;7.890;2022-09-13T04:17:06;98334.16;;;10.48;76.92
70374;BME280;57792;49.198;7.890;2022-09-13T04:18:06;98337.41;;;10.55;76.34
70374;BME280;57792;49.198;7.890;2022-09-13T04:19:08;98324.59;;;10.44;76.69
70374;BME280;57792;49.198;7.890;2022-09-13T04:20:09;98338.50;;;10.51;76.57
70374;BME280;57792;49.198;7.890;2022-09-13T04:21:10;98336.63;;;10.53;76.29
70374;BME280;57792;49.198;7.890;2022-09-13T04:22:10;98337.63;;;10.50;76.78
70374;BME280;57792;49.198;7.890;2022-09-13T04:23:11;98330.00;;;10.42;76.64
70374;BME280;57792;49.198;7.890;2022-09-13T04:24:11;98334.53;;;10.40;77.48
70374;BME280;57792;49.198;7.890;2022-09-13T04:25:12;98340.28;;;10.13;78.76
70374;BME280;57792;49.198;7.890;2022-09-13T04:26:13;98336.94;;;9.89;79.93
70374;BME280;57792;49.198;7.890;2022-09-13T04:27:13;98336.06;;;9.88;80.11
70374;BME280;57792;49.198;7.890;2022-09-13T04:28:13;98342.94;;;10.13;78.93
70374;BME280;57792;49.198;7.890;2022-09-13T04:29:16;98337.19;;;10.22;78.33
70374;BME280;57792;49.198;7.890;2022-09-13T04:30:17;98327.91;;;10.30;78.08
70374;BME280;57792;49.198;7.890;2022-09-13T04:31:17;98331.94;;;10.39;77.40
70374;BME280;57792;49.198;7.890;2022-09-13T04:32:18;98326.97;;;10.50;76.88
70374;BME280;57792;49.198;7.890;2022-09-13T04:33:19;98335.63;;;10.55;77.06
70374;BME280;57792;49.198;7.890;2022-09-13T04:34:19;98335.47;;;10.58;77.30
70374;BME280;57792;49.198;7.890;2022-09-13T04:35:22;98339.00;;;10.59;77.17
70374;BME280;57792;49.198;7.890;2022-09-13T04:36:22;98334.59;;;10.58;76.75
70374;BME280;57792;49.198;7.890;2022-09-13T04:37:22;98337.63;;;10.50;77.01
70374;BME280;57792;49.198;7.890;2022-09-13T04:38:23;98337.41;;;10.55;76.72
70374;BME280;57792;49.198;7.890;2022-09-13T04:39:23;98334.69;;;10.56;76.86
70374;BME280;57792;49.198;7.890;2022-09-13T04:40:24;98341.16;;;10.51;77.00
70374;BME280;57792;49.198;7.890;2022-09-13T04:41:25;98339.13;;;10.18;79.13
70374;BME280;57792;49.198;7.890;2022-09-13T04:42:25;98328.16;;;9.87;80.60
70374;BME280;57792;49.198;7.890;2022-09-13T04:43:25;98341.47;;;10.05;79.76
70374;BME280;57792;49.198;7.890;2022-09-13T04:44:26;98341.38;;;10.27;78.53
70374;BME280;57792;49.198;7.890;2022-09-13T04:45:27;98339.13;;;10.37;77.85
70374;BME280;57792;49.198;7.890;2022-09-13T04:46:28;98328.31;;;10.40;77.30
70374;BME280;57792;49.198;7.890;2022-09-13T04:47:28;98336.84;;;10.48;77.32
70374;BME280;57792;49.198;7.890;2022-09-13T04:48:29;98345.34;;;10.56;77.66
70374;BME280;57792;49.198;7.890;2022-09-13T04:49:30;98353.28;;;10.58;77.23
70374;BME280;57792;49.198;7.890;2022-09-13T04:50:30;98350.88;;;10.52;77.39
70374;BME280;57792;49.198;7.890;2022-09-13T04:51:30;98357.94;;;10.53;77.08
70374;BME280;57792;49.198;7.890;2022-09-13T04:52:31;98359.38;;;10.41;77.50
70374;BME280;57792;49.198;7.890;2022-09-13T04:53:32;98366.22;;;10.28;78.60
70374;BME280;57792;49.198;7.890;2022-09-13T04:54:32;98370.25;;;10.36;77.84
70374;BME280;57792;49.198;7.890;2022-09-13T04:55:33;98367.78;;;10.13;79.22
70374;BME280;57792;49.198;7.890;2022-09-13T04:56:33;98372.22;;;10.33;78.18
70374;BME280;57792;49.198;7.890;2022-09-13T04:57:33;98363.19;;;10.35;78.08
70374;BME280;57792;49.198;7.890;2022-09-13T04:58:34;98373.44;;;10.44;77.64
70374;BME280;57792;49.198;7.890;2022-09-13T04:59:34;98366.16;;;10.48;77.45
70374;BME280;57792;49.198;7.890;2022-09-13T05:00:35;98361.47;;;10.53;76.97
70374;BME280;57792;49.198;7.890;2022-09-13T05:01:35;98372.78;;;10.58;77.01
70374;BME280;57792;49.198;7.890;2022-09-13T05:02:36;98368.03;;;10.46;77.46
70374;BME280;57792;49.198;7.890;2022-09-13T05:03:37;98373.16;;;10.51;77.19
70374;BME280;57792;49.198;7.890;2022-09-13T05:04:37;98369.47;;;10.53;77.25
70374;BME280;57792;49.198;7.890;2022-09-13T05:05:38;98379.34;;;10.32;77.79
70374;BME280;57792;49.198;7.890;2022-09-13T05:06:38;98387.22;;;10.15;78.99
70374;BME280;57792;49.198;7.890;2022-09-13T05:07:38;98378.63;;;10.29;78.40
70374;BME280;57792;49.198;7.890;2022-09-13T05:08:39;98379.81;;;10.40;78.24
70374;BME280;57792;49.198;7.890;2022-09-13T05:09:39;98376.16;;;10.43;77.67
70374;BME280;57792;49.198;7.890;2022-09-13T05:10:40;98378.53;;;10.49;77.21
70374;BME280;57792;49.198;7.890;2022-09-13T05:11:41;98373.16;;;10.51;77.28
70374;BME280;57792;49.198;7.890;2022-09-13T05:12:41;98369.25;;;10.58;77.38
70374;BME280;57792;49.198;7.890;2022-09-13T05:13:41;98378.34;;;10.54;77.38
70374;BME280;57792;49.198;7.890;2022-09-13T05:14:42;98372.72;;;10.60;77.19
70374;BME280;57792;49.198;7.890;2022-09-13T05:15:42;98378.72;;;10.65;76.61
70374;BME280;57792;49.198;7.890;2022-09-13T05:16:42;98374.31;;;10.64;76.46
70374;BME280;57792;49.198;7.890;2022-09-13T05:17:43;98382.16;;;10.67;76.82
70374;BME280;57792;49.198;7.890;2022-09-13T05:18:43;98386.47;;;10.69;76.60
70374;BME280;57792;49.198;7.890;2022-09-13T05:19:43;98388.44;;;10.66;76.72
70374;BME280;57792;49.198;7.890;2022-09-13T05:20:44;98389.72;;;10.57;77.04
70374;BME280;57792;49.198;7.890;2022-09-13T05:21:44;98380.13;;;10.53;77.06
70374;BME280;57792;49.198;7.890;2022-09-13T05:22:44;98380.28;;;10.31;78.55
70374;BME280;57792;49.198;7.890;2022-09-13T05:23:48;98389.34;;;10.27;78.72
70374;BME280;57792;49.198;7.890;2022-09-13T05:24:48;98386.63;;;10.48;77.47
70374;BME280;57792;49.198;7.890;2022-09-13T05:25:56;98379.28;;;10.53;77.33
70374;BME280;57792;49.198;7.890;2022-09-13T05:26:57;98384.41;;;10.57;76.93
70374;BME280;57792;49.198;7.890;2022-09-13T05:27:57;98377.31;;;10.56;77.10
70374;BME280;57792;49.198;7.890;2022-09-13T05:28:58;98378.19;;;10.57;77.34
70374;BME280;57792;49.198;7.890;2022-09-13T05:29:59;98376.13;;;10.63;76.99
70374;BME280;57792;49.198;7.890;2022-09-13T05:31:05;98379.50;;;10.67;77.20
70374;BME280;57792;49.198;7.890;2022-09-13T05:32:06;98373.91;;;10.71;76.91
70374;BME280;57792;49.198;7.890;2022-09-13T05:33:06;98373.84;;;10.73;76.98
70374;BME280;57792;49.198;7.890;2022-09-13T05:34:09;98370.53;;;10.68;77.26
70374;BME280;57792;49.198;7.890;2022-09-13T05:35:10;98374.06;;;10.68;77.12
70374;BME280;57792;49.198;7.890;2022-09-13T05:36:10;98377.25;;;10.76;76.53
70374;BME280;57792;49.198;7.890;2022-09-13T05:37:10;98371.19;;;10.73;76.93
70374;BME280;57792;49.198;7.890;2022-09-13T05:38:11;98375.75;;;10.52;78.09
70374;BME280;57792;49.198;7.890;2022-09-13T05:39:13;98379.06;;;9.99;80.28
70374;BME280;57792;49.198;7.890;2022-09-13T05:40:14;98385.19;;;10.01;80.58
70374;BME280;57792;49.198;7.890;2022-09-13T05:41:14;98385.88;;;10.25;79.88
70374;BME280;57792;49.198;7.890;2022-09-13T05:42:15;98382.91;;;10.13;80.79
70374;BME280;57792;49.198;7.890;2022-09-13T05:43:15;98376.94;;;10.26;80.01
70374;BME280;57792;49.198;7.890;2022-09-13T05:44:15;98363.78;;;10.23;80.07
70374;BME280;57792;49.198;7.890;2022-09-13T05:45:16;98354.13;;;10.39;79.00
70374;BME280;57792;49.198;7.890;2022-09-13T05:46:18;98358.53;;;10.59;78.49
70374;BME280;57792;49.198;7.890;2022-09-13T05:47:21;98372.84;;;10.75;78.01
70374;BME280;57792;49.198;7.890;2022-09-13T05:48:22;98370.69;;;10.84;77.36
70374;BME280;57792;49.198;7.890;2022-09-13T05:49:22;98359.72;;;10.90;77.28
70374;BME280;57792;49.198;7.890;2022-09-13T05:50:23;98369.53;;;10.89;77.40
70374;BME280;57792;49.198;7.890;2022-09-13T05:51:23;98374.56;;;10.76;77.89
70374;BME280;57792;49.198;7.890;2022-09-13T05:52:23;98381.91;;;10.71;77.92
70374;BME280;57792;49.198;7.890;2022-09-13T05:53:24;98362.13;;;10.58;79.06
70374;BME280;57792;49.198;7.890;2022-09-13T05:54:24;98387.09;;;10.74;78.16
70374;BME280;57792;49.198;7.890;2022-09-13T05:55:25;98377.03;;;10.81;78.16
70374;BME280;57792;49.198;7.890;2022-09-13T05:56:28;98374.63;;;10.94;77.28
70374;BME280;57792;49.198;7.890;2022-09-13T05:57:29;98378.41;;;11.07;77.21
70374;BME280;57792;49.198;7.890;2022-09-13T05:58:29;98388.72;;;11.15;76.99
70374;BME280;57792;49.198;7.890;2022-09-13T05:59:29;98379.75;;;11.17;76.61
70374;BME280;57792;49.198;7.890;2022-09-13T06:00:30;98383.06;;;11.22;76.41
70374;BME280;57792;49.198;7.890;2022-09-13T06:01:31;98373.47;;;11.18;76.58
70374;BME280;57792;49.198;7.890;2022-09-13T06:02:31;98383.03;;;11.03;77.69
70374;BME280;57792;49.198;7.890;2022-09-13T06:03:32;98367.19;;;10.64;78.65
70374;BME280;57792;49.198;7.890;2022-09-13T06:04:34;98380.56;;;10.82;78.55
70374;BME280;57792;49.198;7.890;2022-09-13T06:05:34;98385.72;;;11.03;77.70
70374;BME280;57792;49.198;7.890;2022-09-13T06:06:35;98367.53;;;11.11;77.14
70374;BME280;57792;49.198;7.890;2022-09-13T06:07:38;98374.75;;;11.28;76.84
70374;BME280;57792;49.198;7.890;2022-09-13T06:08:38;98381.41;;;11.37;76.44
70374;BME280;57792;49.198;7.890;2022-09-13T06:09:38;98378.66;;;11.38;76.65
70374;BME280;57792;49.198;7.890;2022-09-13T06:10:39;98377.25;;;11.31;77.09
70374;BME280;57792;49.198;7.890;2022-09-13T06:11:39;98372.59;;;11.35;76.90
70374;BME280;57792;49.198;7.890;2022-09-13T06:12:39;98372.78;;;11.32;77.03
70374;BME280;57792;49.198;7.890;2022-09-13T06:13:41;98364.22;;;11.42;76.65
70374;BME280;57792;49.198;7.890;2022-09-13T06:14:42;98368.94;;;11.55;76.37
70374;BME280;57792;49.198;7.890;2022-09-13T06:15:42;98364.56;;;11.54;76.14
70374;BME280;57792;49.198;7.890;2022-09-13T06:16:43;98364.00;;;11.64;75.88
70374;BME280;57792;49.198;7.890;2022-09-13T06:17:43;98368.78;;;11.75;75.51
70374;BME280;57792;49.198;7.890;2022-09-13T06:18:43;98367.13;;;11.72;75.59